createdAt,value
2023-04-27T00:00:12.476Z,10.74
2023-04-27T00:02:40.634Z,10.75
2023-04-27T00:05:09.157Z,10.75
2023-04-27T00:07:37.282Z,10.75
2023-04-27T00:10:05.417Z,10.75
2023-04-27T00:12:33.459Z,10.75
2023-04-27T00:15:01.359Z,10.76
2023-04-27T00:17:29.358Z,10.78
2023-04-27T00:19:57.328Z,10.74
2023-04-27T00:22:25.214Z,10.70
2023-04-27T00:24:53.132Z,10.66
2023-04-27T00:27:21.118Z,10.62
2023-04-27T00:29:49.201Z,10.56
2023-04-27T00:32:17.776Z,10.50
2023-04-27T00:34:45.710Z,10.52
2023-04-27T00:37:13.640Z,10.52
2023-04-27T00:39:41.883Z,10.47
2023-04-27T00:42:14.531Z,10.43
2023-04-27T00:44:42.726Z,10.39
2023-04-27T00:47:11.299Z,10.33
2023-04-27T00:49:39.456Z,10.33
2023-04-27T00:52:07.672Z,10.33
2023-04-27T00:54:35.674Z,10.36
2023-04-27T00:57:05.353Z,10.34
2023-04-27T00:59:33.278Z,10.36
2023-04-27T01:02:01.333Z,10.34
2023-04-27T01:04:30.206Z,10.35
2023-04-27T01:06:58.873Z,10.32
2023-04-27T01:09:27.186Z,10.35
2023-04-27T01:11:55.581Z,10.37
2023-04-27T01:14:23.752Z,10.35
2023-04-27T01:16:53.294Z,10.38
2023-04-27T01:19:21.223Z,10.33
2023-04-27T01:21:49.108Z,10.33
2023-04-27T01:24:17.047Z,10.31
2023-04-27T01:26:44.952Z,10.30
2023-04-27T01:29:13.089Z,10.28
2023-04-27T01:31:41.267Z,10.30
2023-04-27T01:34:09.334Z,10.29
2023-04-27T01:36:37.441Z,10.27
2023-04-27T01:39:05.852Z,10.24
2023-04-27T01:41:33.864Z,10.24
2023-04-27T01:44:01.883Z,10.23
2023-04-27T01:46:29.802Z,10.22
2023-04-27T01:48:57.837Z,10.20
2023-04-27T01:51:25.908Z,10.19
2023-04-27T01:53:53.893Z,10.17
2023-04-27T01:56:21.869Z,10.16
2023-04-27T01:58:49.860Z,10.12
2023-04-27T02:01:17.847Z,10.13
2023-04-27T02:03:46.054Z,10.13
2023-04-27T02:06:14.465Z,10.11
2023-04-27T02:08:42.488Z,10.11
2023-04-27T02:11:10.581Z,10.11
2023-04-27T02:13:38.634Z,10.11
2023-04-27T02:16:06.910Z,10.13
2023-04-27T02:18:35.055Z,10.11
2023-04-27T02:21:03.155Z,10.07
2023-04-27T02:23:31.134Z,10.10
2023-04-27T02:25:59.069Z,10.13
2023-04-27T02:28:27.256Z,10.09
2023-04-27T02:30:55.413Z,10.08
2023-04-27T02:33:23.352Z,10.11
2023-04-27T02:35:51.277Z,10.10
2023-04-27T02:38:19.185Z,10.10
2023-04-27T02:40:47.151Z,10.10
2023-04-27T02:43:15.146Z,10.09
2023-04-27T02:45:43.270Z,10.06
2023-04-27T02:48:11.266Z,10.04
2023-04-27T02:50:43.479Z,10.03
2023-04-27T02:53:12.007Z,10.04
2023-04-27T02:55:40.533Z,10.06
2023-04-27T02:58:08.511Z,10.02
2023-04-27T03:00:36.477Z,10.03
2023-04-27T03:03:05.251Z,10.00
2023-04-27T03:05:33.649Z,10.00
2023-04-27T03:08:01.740Z,10.00
2023-04-27T03:10:29.685Z,9.99
2023-04-27T03:12:57.621Z,10.01
2023-04-27T03:15:25.547Z,9.98
2023-04-27T03:20:29.042Z,9.97
2023-04-27T03:22:57.025Z,9.97
2023-04-27T03:25:25.072Z,10.00
2023-04-27T03:27:53.051Z,10.00
2023-04-27T03:30:21.082Z,9.99
2023-04-27T03:32:49.014Z,9.97
2023-04-27T03:35:17.259Z,9.96
2023-04-27T03:37:47.317Z,9.95
2023-04-27T03:40:15.847Z,9.96
2023-04-27T03:42:43.805Z,9.96
2023-04-27T03:45:13.600Z,9.95
2023-04-27T03:47:41.819Z,9.93
2023-04-27T03:50:10.230Z,9.88
2023-04-27T03:52:38.131Z,9.87
2023-04-27T03:55:07.381Z,9.87
2023-04-27T03:57:35.512Z,9.87
2023-04-27T04:00:03.666Z,9.85
2023-04-27T04:02:31.739Z,9.85
2023-04-27T04:04:59.791Z,9.86
2023-04-27T04:07:27.737Z,9.86
2023-04-27T04:09:55.656Z,9.82
2023-04-27T04:12:23.621Z,9.81
2023-04-27T04:14:52.332Z,9.80
2023-04-27T04:17:20.475Z,9.80
2023-04-27T04:19:48.452Z,9.78
2023-04-27T04:22:16.373Z,9.77
2023-04-27T04:24:44.357Z,9.79
2023-04-27T04:27:12.318Z,9.79
2023-04-27T04:29:40.575Z,9.77
2023-04-27T04:32:08.869Z,9.78
2023-04-27T04:34:39.998Z,9.79
2023-04-27T04:37:08.003Z,9.80
2023-04-27T04:39:36.061Z,9.81
2023-04-27T04:42:05.436Z,9.80
2023-04-27T04:44:33.793Z,9.82
2023-04-27T04:47:02.155Z,9.80
2023-04-27T04:49:30.096Z,9.79
2023-04-27T04:51:58.083Z,9.80
2023-04-27T04:54:26.035Z,9.79
2023-04-27T04:56:55.036Z,9.81
2023-04-27T04:59:23.233Z,9.83
2023-04-27T05:01:51.333Z,9.84
2023-04-27T05:04:20.070Z,9.86
2023-04-27T05:06:48.646Z,9.89
2023-04-27T05:09:16.746Z,9.91
2023-04-27T05:11:44.702Z,9.97
2023-04-27T05:14:12.683Z,9.98
2023-04-27T05:16:40.662Z,10.00
2023-04-27T05:19:09.753Z,10.01
2023-04-27T05:21:37.708Z,10.02
2023-04-27T05:24:05.668Z,10.03
2023-04-27T05:26:33.674Z,10.03
2023-04-27T05:29:02.120Z,10.07
2023-04-27T05:31:30.178Z,10.06
2023-04-27T05:33:58.181Z,10.09
2023-04-27T05:36:26.168Z,10.12
2023-04-27T05:38:54.162Z,10.16
2023-04-27T05:41:22.120Z,10.16
2023-04-27T05:43:50.497Z,10.19
2023-04-27T05:46:18.520Z,10.21
2023-04-27T05:48:46.537Z,10.20
2023-04-27T05:51:14.585Z,10.21
2023-04-27T05:53:42.587Z,10.22
2023-04-27T05:56:10.696Z,10.21
2023-04-27T05:58:38.836Z,10.24
2023-04-27T06:01:07.549Z,10.29
2023-04-27T06:03:35.695Z,10.30
2023-04-27T06:06:04.163Z,10.32
2023-04-27T06:08:33.043Z,10.31
2023-04-27T06:11:01.049Z,10.32
2023-04-27T06:13:29.021Z,10.36
2023-04-27T06:15:57.255Z,10.46
2023-04-27T06:18:25.228Z,10.49
2023-04-27T06:20:53.192Z,10.55
2023-04-27T06:23:21.231Z,10.57
2023-04-27T06:25:49.184Z,10.65
2023-04-27T06:28:17.194Z,10.70
2023-04-27T06:30:45.294Z,10.77
2023-04-27T06:33:13.393Z,10.95
2023-04-27T06:35:41.480Z,11.20
2023-04-27T06:38:09.566Z,11.30
2023-04-27T06:40:38.609Z,11.49
2023-04-27T06:43:06.794Z,11.62
2023-04-27T06:45:34.805Z,11.59
2023-04-27T06:48:02.956Z,11.54
2023-04-27T06:50:31.865Z,11.50
2023-04-27T06:52:59.901Z,11.49
2023-04-27T06:55:28.003Z,11.43
2023-04-27T06:57:56.017Z,11.46
2023-04-27T07:00:24.233Z,11.57
2023-04-27T07:02:52.829Z,11.66
2023-04-27T07:05:20.897Z,11.71
2023-04-27T07:07:48.940Z,11.74
2023-04-27T07:10:16.927Z,11.79
2023-04-27T07:12:44.999Z,11.75
2023-04-27T07:15:12.941Z,11.81
2023-04-27T07:17:40.877Z,11.83
2023-04-27T07:20:10.820Z,11.86
2023-04-27T07:22:38.755Z,11.89
2023-04-27T07:25:07.688Z,11.91
2023-04-27T07:27:36.892Z,11.92
2023-04-27T07:30:05.029Z,11.92
2023-04-27T07:32:33.509Z,11.96
2023-04-27T07:35:01.452Z,11.95
2023-04-27T07:37:30.320Z,11.96
2023-04-27T07:39:59.053Z,12.01
2023-04-27T07:42:27.096Z,12.01
2023-04-27T07:44:55.666Z,12.03
2023-04-27T07:47:23.730Z,12.05
2023-04-27T07:49:52.286Z,12.08
2023-04-27T07:52:20.276Z,12.08
2023-04-27T07:54:48.327Z,12.06
2023-04-27T07:57:16.288Z,12.11
2023-04-27T07:59:44.399Z,12.13
2023-04-27T08:04:45.927Z,12.79
2023-04-27T08:07:14.226Z,12.98
2023-04-27T08:09:42.588Z,13.05
2023-04-27T08:12:10.514Z,13.08
2023-04-27T08:14:38.682Z,13.15
2023-04-27T08:17:07.031Z,13.16
2023-04-27T08:19:35.688Z,13.11
2023-04-27T08:22:03.674Z,13.07
2023-04-27T08:24:31.924Z,13.11
2023-04-27T08:26:59.972Z,13.09
2023-04-27T08:29:29.012Z,13.04
2023-04-27T08:32:00.379Z,13.01
2023-04-27T08:34:29.043Z,13.33
2023-04-27T08:36:57.976Z,13.44
2023-04-27T08:39:26.451Z,13.41
2023-04-27T08:41:54.755Z,13.36
2023-04-27T08:44:22.764Z,13.32
2023-04-27T08:46:52.237Z,13.64
2023-04-27T08:49:20.682Z,13.81
2023-04-27T08:51:49.231Z,13.76
2023-04-27T08:54:17.243Z,13.60
2023-04-27T08:56:45.215Z,13.52
2023-04-27T08:59:17.263Z,13.49
2023-04-27T09:01:49.913Z,13.45
2023-04-27T09:04:19.161Z,13.51
2023-04-27T09:06:47.691Z,13.55
2023-04-27T09:09:25.398Z,13.55
2023-04-27T09:11:53.518Z,13.64
2023-04-27T09:14:23.196Z,13.75
2023-04-27T09:17:01.370Z,14.16
2023-04-27T09:19:30.192Z,14.86
2023-04-27T09:22:16.299Z,15.59
2023-04-27T09:24:53.900Z,15.97
2023-04-27T09:27:23.114Z,15.84
2023-04-27T09:29:51.313Z,15.79
2023-04-27T09:32:20.404Z,15.71
2023-04-27T09:34:48.377Z,15.60
2023-04-27T09:37:16.713Z,15.47
2023-04-27T09:39:44.868Z,15.40
2023-04-27T09:42:13.945Z,15.36
2023-04-27T09:44:42.090Z,15.34
2023-04-27T09:47:10.050Z,15.40
2023-04-27T09:49:38.306Z,15.52
2023-04-27T09:52:06.329Z,15.91
2023-04-27T09:54:35.108Z,16.34
2023-04-27T09:57:12.827Z,16.80
2023-04-27T10:00:17.657Z,16.76
2023-04-27T10:03:10.527Z,16.53
2023-04-27T10:05:47.671Z,16.31
2023-04-27T10:08:15.708Z,16.69
2023-04-27T10:10:45.319Z,16.84
2023-04-27T10:13:22.729Z,16.96
2023-04-27T10:15:50.725Z,16.89
2023-04-27T10:18:29.084Z,17.13
2023-04-27T10:20:57.317Z,17.30
2023-04-27T10:23:26.616Z,17.56
2023-04-27T10:25:55.256Z,17.27
2023-04-27T10:28:23.246Z,17.05
2023-04-27T10:30:51.446Z,17.37
2023-04-27T10:33:20.902Z,17.53
2023-04-27T10:35:59.590Z,17.77
2023-04-27T10:38:31.538Z,18.25
2023-04-27T10:41:00.187Z,18.47
2023-04-27T10:43:29.136Z,18.29
2023-04-27T10:45:57.377Z,18.27
2023-04-27T10:48:25.437Z,18.24
2023-04-27T10:50:53.858Z,18.41
2023-04-27T10:53:22.037Z,18.56
2023-04-27T10:55:50.031Z,18.68
2023-04-27T10:58:18.109Z,18.73
2023-04-27T11:00:46.177Z,18.89
2023-04-27T11:03:15.889Z,19.12
2023-04-27T11:05:47.574Z,19.13
2023-04-27T11:08:19.572Z,19.06
2023-04-27T11:10:50.679Z,18.94
2023-04-27T11:13:20.492Z,18.96
2023-04-27T11:15:53.035Z,19.12
2023-04-27T11:18:21.989Z,18.81
2023-04-27T11:20:51.422Z,18.62
2023-04-27T11:23:27.460Z,18.37
2023-04-27T11:25:55.740Z,18.49
2023-04-27T11:28:27.409Z,18.66
2023-04-27T11:30:59.357Z,18.82
2023-04-27T11:33:29.191Z,19.04
2023-04-27T11:35:57.859Z,19.14
2023-04-27T11:38:26.070Z,19.16
2023-04-27T11:41:02.927Z,19.16
2023-04-27T11:43:31.062Z,19.11
2023-04-27T11:46:00.146Z,18.88
2023-04-27T11:48:28.767Z,18.93
2023-04-27T11:51:00.483Z,18.96
2023-04-27T11:53:39.474Z,19.16
2023-04-27T11:56:12.359Z,19.51
2023-04-27T11:58:40.996Z,19.70
2023-04-27T12:01:09.190Z,19.86
2023-04-27T12:03:38.467Z,20.06
2023-04-27T12:06:22.066Z,20.34
2023-04-27T12:08:54.592Z,20.03
2023-04-27T12:11:23.177Z,20.06
2023-04-27T12:13:51.170Z,20.04
2023-04-27T12:16:19.438Z,20.07
2023-04-27T12:18:47.731Z,20.05
2023-04-27T12:21:15.727Z,19.71
2023-04-27T12:23:43.780Z,19.41
2023-04-27T12:26:14.284Z,19.08
2023-04-27T12:28:43.209Z,18.76
2023-04-27T12:31:15.175Z,18.46
2023-04-27T12:33:44.067Z,18.50
2023-04-27T12:36:12.122Z,18.23
2023-04-27T12:38:40.112Z,18.10
2023-04-27T12:41:08.166Z,18.16
2023-04-27T12:43:38.769Z,18.48
2023-04-27T12:46:06.849Z,18.85
2023-04-27T12:48:35.154Z,19.17
2023-04-27T12:51:03.329Z,19.27
2023-04-27T12:53:31.374Z,19.19
2023-04-27T12:56:02.149Z,19.08
2023-04-27T12:58:30.204Z,18.93
2023-04-27T13:00:59.154Z,18.77
2023-04-27T13:03:27.354Z,18.59
2023-04-27T13:05:55.564Z,18.45
2023-04-27T13:08:23.621Z,18.26
2023-04-27T13:10:51.773Z,18.20
2023-04-27T13:13:19.829Z,18.63
2023-04-27T13:15:47.841Z,18.92
2023-04-27T13:18:16.036Z,18.87
2023-04-27T13:20:45.449Z,18.67
2023-04-27T13:23:13.993Z,18.81
2023-04-27T13:25:42.397Z,18.67
2023-04-27T13:28:10.468Z,18.66
2023-04-27T13:30:38.528Z,18.85
2023-04-27T13:33:21.176Z,19.01
2023-04-27T13:35:54.638Z,19.14
2023-04-27T13:38:22.743Z,19.41
2023-04-27T13:40:50.769Z,19.68
2023-04-27T13:43:18.949Z,19.91
2023-04-27T13:45:47.106Z,20.15
2023-04-27T13:48:15.078Z,20.41
2023-04-27T13:50:43.214Z,20.43
2023-04-27T13:53:11.231Z,20.50
2023-04-27T13:55:39.430Z,20.48
2023-04-27T13:58:07.547Z,20.56
2023-04-27T14:00:36.028Z,20.68
2023-04-27T14:03:05.785Z,20.82
2023-04-27T14:05:33.966Z,20.89
2023-04-27T14:08:02.286Z,20.98
2023-04-27T14:10:30.479Z,20.97
2023-04-27T14:12:58.674Z,20.90
2023-04-27T14:15:27.321Z,20.89
2023-04-27T14:17:55.334Z,20.65
2023-04-27T14:20:23.391Z,20.38
2023-04-27T14:22:51.328Z,20.16
2023-04-27T14:25:19.409Z,20.19
2023-04-27T14:27:47.537Z,20.03
2023-04-27T14:30:15.739Z,19.90
2023-04-27T14:32:43.912Z,19.87
2023-04-27T14:35:12.296Z,19.77
2023-04-27T14:37:40.331Z,19.69
2023-04-27T14:40:09.138Z,19.59
2023-04-27T14:42:37.281Z,19.59
2023-04-27T14:45:05.614Z,19.55
2023-04-27T14:47:33.829Z,19.47
2023-04-27T14:50:01.848Z,19.44
2023-04-27T14:52:30.360Z,19.28
2023-04-27T14:54:58.420Z,19.13
2023-04-27T14:57:26.381Z,18.97
2023-04-27T14:59:54.361Z,18.83
2023-04-27T15:02:22.407Z,18.70
2023-04-27T15:04:50.528Z,18.57
2023-04-27T15:07:18.604Z,18.52
2023-04-27T15:09:46.565Z,18.44
2023-04-27T15:12:14.605Z,18.42
2023-04-27T15:14:42.688Z,18.40
2023-04-27T15:17:10.684Z,18.32
2023-04-27T15:19:38.718Z,18.23
2023-04-27T15:22:07.104Z,18.12
2023-04-27T15:24:35.083Z,18.10
2023-04-27T15:27:03.053Z,18.04
2023-04-27T15:29:31.081Z,17.96
2023-04-27T15:31:59.070Z,17.89
2023-04-27T15:34:27.066Z,17.84
2023-04-27T15:36:55.035Z,17.76
2023-04-27T15:39:23.049Z,17.67
2023-04-27T15:41:51.050Z,17.65
2023-04-27T15:44:19.146Z,17.61
2023-04-27T15:46:47.150Z,17.59
2023-04-27T15:49:15.444Z,17.52
2023-04-27T15:51:43.640Z,17.45
2023-04-27T15:54:11.613Z,17.41
2023-04-27T15:56:39.663Z,17.41
2023-04-27T15:59:08.166Z,17.38
2023-04-27T16:01:36.118Z,17.38
2023-04-27T16:04:04.501Z,17.34
2023-04-27T16:06:36.279Z,17.33
2023-04-27T16:09:10.594Z,17.35
2023-04-27T16:11:38.908Z,17.35
2023-04-27T16:14:07.134Z,17.29
2023-04-27T16:16:35.557Z,17.22
2023-04-27T16:19:03.690Z,17.15
2023-04-27T16:21:31.604Z,17.10
2023-04-27T16:23:59.531Z,17.07
2023-04-27T16:26:28.288Z,17.02
2023-04-27T16:28:57.863Z,17.00
2023-04-27T16:31:26.017Z,16.97
2023-04-27T16:33:53.979Z,16.91
2023-04-27T16:36:22.080Z,16.86
2023-04-27T16:38:49.997Z,16.84
2023-04-27T16:41:18.255Z,16.83
2023-04-27T16:43:46.380Z,16.78
2023-04-27T16:46:15.960Z,16.76
2023-04-27T16:48:44.109Z,16.75
2023-04-27T16:51:12.252Z,16.73
2023-04-27T16:53:40.348Z,16.72
2023-04-27T16:56:08.819Z,16.75
2023-04-27T16:58:37.483Z,16.74
2023-04-27T17:01:06.077Z,16.73
2023-04-27T17:03:36.321Z,16.73
2023-04-27T17:06:04.725Z,16.70
2023-04-27T17:08:32.676Z,16.68
2023-04-27T17:11:00.625Z,16.67
2023-04-27T17:13:28.694Z,16.63
2023-04-27T17:15:56.856Z,16.62
2023-04-27T17:18:24.862Z,16.57
2023-04-27T17:20:53.680Z,16.53
2023-04-27T17:23:21.897Z,16.50
2023-04-27T17:25:50.035Z,16.42
2023-04-27T17:28:17.998Z,16.35
2023-04-27T17:30:46.006Z,16.27
2023-04-27T17:33:15.952Z,16.20
2023-04-27T17:35:45.751Z,16.14
2023-04-27T17:38:13.859Z,16.09
2023-04-27T17:40:42.099Z,16.03
2023-04-27T17:43:10.746Z,15.99
2023-04-27T17:45:38.862Z,15.96
2023-04-27T17:48:08.033Z,15.93
2023-04-27T17:50:37.387Z,15.87
2023-04-27T17:53:05.434Z,15.80
2023-04-27T17:55:33.820Z,15.76
2023-04-27T17:58:01.881Z,15.70
2023-04-27T18:00:30.169Z,15.66
2023-04-27T18:02:58.337Z,15.60
2023-04-27T18:05:26.522Z,15.55
2023-04-27T18:07:55.099Z,15.52
2023-04-27T18:10:23.213Z,15.50
2023-04-27T18:12:51.199Z,15.42
2023-04-27T18:15:19.178Z,15.36
2023-04-27T18:17:47.277Z,15.33
2023-04-27T18:20:16.927Z,15.31
2023-04-27T18:22:45.004Z,15.27
2023-04-27T18:25:13.194Z,15.26
2023-04-27T18:27:41.274Z,15.21
2023-04-27T18:30:12.529Z,15.22
2023-04-27T18:32:40.569Z,15.12
2023-04-27T18:35:08.919Z,15.02
2023-04-27T18:37:36.946Z,14.95
2023-04-27T18:40:07.220Z,14.87
2023-04-27T18:42:35.267Z,14.77
2023-04-27T18:45:03.280Z,14.71
2023-04-27T18:47:31.248Z,14.67
2023-04-27T18:49:59.363Z,14.64
2023-04-27T18:52:27.540Z,14.57
2023-04-27T18:54:55.551Z,14.54
2023-04-27T18:57:24.014Z,14.49
2023-04-27T18:59:52.108Z,14.48
2023-04-27T19:02:20.080Z,14.45
2023-04-27T19:04:52.800Z,14.46
2023-04-27T19:07:21.044Z,14.45
2023-04-27T19:09:50.214Z,14.48
2023-04-27T19:12:18.279Z,14.51
2023-04-27T19:14:46.365Z,14.52
2023-04-27T19:17:14.568Z,14.54
2023-04-27T19:19:42.679Z,14.55
2023-04-27T19:22:10.800Z,14.57
2023-04-27T19:24:38.980Z,14.60
2023-04-27T19:27:07.055Z,14.62
2023-04-27T19:29:38.683Z,14.64
2023-04-27T19:32:06.711Z,14.65
2023-04-27T19:34:34.694Z,14.63
2023-04-27T19:37:02.865Z,14.59
2023-04-27T19:39:33.001Z,14.55
2023-04-27T19:42:02.871Z,14.54
2023-04-27T19:44:30.975Z,14.48
2023-04-27T19:46:59.005Z,14.51
2023-04-27T19:49:27.170Z,14.47
2023-04-27T19:51:55.150Z,14.43
2023-04-27T19:54:23.133Z,14.43
2023-04-27T19:56:51.498Z,14.47
2023-04-27T19:59:19.882Z,14.48
2023-04-27T20:01:48.069Z,14.43
2023-04-27T20:04:16.871Z,14.43
2023-04-27T20:06:45.944Z,14.43
2023-04-27T20:09:13.928Z,14.39
2023-04-27T20:11:41.949Z,14.40
2023-04-27T20:14:09.932Z,14.40
2023-04-27T20:16:38.053Z,14.38
2023-04-27T20:19:07.543Z,14.34
2023-04-27T20:21:35.742Z,14.32
2023-04-27T20:24:03.893Z,14.27
2023-04-27T20:26:31.884Z,14.21
2023-04-27T20:28:59.924Z,14.17
2023-04-27T20:31:28.133Z,14.15
2023-04-27T20:33:56.184Z,14.11
2023-04-27T20:36:24.569Z,14.05
2023-04-27T20:38:52.608Z,14.00
2023-04-27T20:41:20.568Z,13.95
2023-04-27T20:43:48.804Z,13.89
2023-04-27T20:46:16.856Z,13.82
2023-04-27T20:48:44.877Z,13.75
2023-04-27T20:51:13.035Z,13.70
2023-04-27T20:53:41.550Z,13.68
2023-04-27T20:56:10.489Z,13.64
2023-04-27T20:58:38.558Z,13.59
2023-04-27T21:01:06.894Z,13.60
2023-04-27T21:03:35.211Z,13.58
2023-04-27T21:06:03.470Z,13.57
2023-04-27T21:08:32.163Z,13.56
2023-04-27T21:11:00.134Z,13.57
2023-04-27T21:13:28.903Z,13.59
2023-04-27T21:15:56.984Z,13.55
2023-04-27T21:18:30.139Z,13.52
2023-04-27T21:20:58.669Z,13.47
2023-04-27T21:23:26.734Z,13.44
2023-04-27T21:25:54.726Z,13.43
2023-04-27T21:28:23.001Z,13.42
2023-04-27T21:30:51.247Z,13.42
2023-04-27T21:33:19.335Z,13.43
2023-04-27T21:35:47.434Z,13.41
2023-04-27T21:38:15.488Z,13.39
2023-04-27T21:40:43.560Z,13.39
2023-04-27T21:43:11.818Z,13.38
2023-04-27T21:45:39.804Z,13.41
2023-04-27T21:48:07.810Z,13.39
2023-04-27T21:50:35.875Z,13.35
2023-04-27T21:53:03.919Z,13.33
2023-04-27T21:55:32.300Z,13.31
2023-04-27T21:58:00.366Z,13.27
2023-04-27T22:00:28.375Z,13.28
2023-04-27T22:02:56.842Z,13.28
2023-04-27T22:05:25.076Z,13.25
2023-04-27T22:07:53.378Z,13.22
2023-04-27T22:10:21.429Z,13.20
2023-04-27T22:12:49.440Z,13.17
2023-04-27T22:15:17.514Z,13.15
2023-04-27T22:17:45.678Z,13.13
2023-04-27T22:20:15.554Z,13.10
2023-04-27T22:22:43.531Z,13.10
2023-04-27T22:25:12.630Z,13.09
2023-04-27T22:27:45.082Z,13.09
2023-04-27T22:30:14.293Z,13.12
2023-04-27T22:32:42.440Z,13.13
2023-04-27T22:35:24.941Z,13.13
2023-04-27T22:37:58.401Z,13.14
2023-04-27T22:40:26.634Z,13.11
2023-04-27T22:42:57.419Z,13.12
2023-04-27T22:45:25.505Z,13.13
2023-04-27T22:47:53.833Z,13.13
2023-04-27T22:50:22.175Z,13.10
2023-04-27T22:52:50.210Z,13.11
2023-04-27T22:55:18.200Z,13.13
2023-04-27T22:57:46.206Z,13.11
2023-04-27T23:00:14.488Z,13.11
2023-04-27T23:02:43.084Z,13.10
2023-04-27T23:05:12.097Z,13.10
2023-04-27T23:07:42.320Z,13.08
2023-04-27T23:10:10.670Z,13.07
2023-04-27T23:12:40.036Z,13.04
2023-04-27T23:15:08.826Z,13.03
2023-04-27T23:17:37.232Z,13.00
2023-04-27T23:20:24.569Z,12.99
2023-04-27T23:22:55.881Z,12.99
2023-04-27T23:25:24.947Z,12.98
2023-04-27T23:27:53.133Z,12.95
2023-04-27T23:30:22.704Z,12.96
2023-04-27T23:32:50.730Z,12.95
2023-04-27T23:35:18.908Z,12.91
2023-04-27T23:37:46.958Z,12.92
2023-04-27T23:40:15.660Z,12.90
2023-04-27T23:42:43.741Z,12.87
2023-04-27T23:45:12.207Z,12.82
2023-04-27T23:47:40.369Z,12.82
2023-04-27T23:50:08.817Z,12.82
2023-04-27T23:52:37.034Z,12.78
2023-04-27T23:55:05.241Z,12.77
2023-04-27T23:57:33.267Z,12.75
